Chelsea, MI

1:03 AM EDT on September 28, 2016 (GMT -0400)
Chrysler Chelsea Proving Grounds | | Change Station

Elev 931 ft 42.27 °N, 84.04 °W | Updated 1 day ago

Cloudy
Cloudy
49 °F
Feels Like 49 °F
N
2
Wind Variable Wind from ESE
Gusts mph

Today
High -- | Low -- °F
--% Chance of Precip.
Yesterday
High -- | Low -- °F
Precip. -- in
Pressure 29.82 in
Visibility 10.0 miles
Clouds Clear
Dew Point 44 °F
Humidity 81%
Rainfall in
Snow Depth Not available.
7:30 AM 7:22 PM
Waning Crescent, 7% visible
METAR KARB 280453Z 00000KT 10SM CLR 09/08 A2982 RMK AO2 SLP098 T00940078 402060067
Pressure 29.82 in
Visibility 10.0 miles
Clouds Clear
Dew Point 44 °F
Humidity 81%
Rainfall in
Snow Depth Not available.
7:30 AM 7:22 PM
Waning Crescent, 7% visible
METAR KARB 280453Z 00000KT 10SM CLR 09/08 A2982 RMK AO2 SLP098 T00940078 402060067

10-Day Weather Forecast

Almanac

Astronomy

Sep. 28, 2016 Rise Set
Actual Time
Civil Twilight
Nautical Twilight
Astronomical Twilight
Moon
Length of Visible Light
Length of Day
Tomorrow will be .
, % of the Moon is Illuminated

Today's Extremes

State Highs State Lows

Community

WunderPhotos

Upload Photos

1,942,213 photos uploaded!

WunderBlog® & News

Nearby

Air Quality

  Air Quality AQ Index Pollutant
Not available.

Snow Depth

Station Depth Elevation

Earthquake Activity

City Distance Mag. Time & Date
Minimum magnitude displayed is 2.5.

Coastal Water Temperatures

Place Temperature

Stations

Nearby Weather Stations

Station Location Temp. Windchill Dew Point Humidity Wind Precip. Elev Updated Type
                   

Watches & Warnings

There are currently no watches in effect.